createdAt,value
2017-06-03T00:02:28.700Z,16.30
2017-06-03T00:04:56.534Z,16.30
2017-06-03T00:07:24.166Z,16.40
2017-06-03T00:09:51.831Z,16.40
2017-06-03T00:12:20.132Z,16.40
2017-06-03T00:14:47.703Z,16.40
2017-06-03T00:17:16.041Z,16.30
2017-06-03T00:19:43.587Z,16.30
2017-06-03T00:22:11.956Z,16.20
2017-06-03T00:24:39.700Z,16.20
2017-06-03T00:27:07.405Z,16.10
2017-06-03T00:29:35.030Z,16.20
2017-06-03T00:32:03.370Z,16.10
2017-06-03T00:34:31.754Z,16.00
2017-06-03T00:36:59.351Z,16.00
2017-06-03T00:39:27.626Z,16.10
2017-06-03T00:41:55.961Z,16.10
2017-06-03T00:44:23.517Z,16.10
2017-06-03T00:46:51.128Z,16.20
2017-06-03T00:49:18.713Z,16.20
2017-06-03T00:51:47.103Z,16.30
2017-06-03T00:54:14.678Z,16.30
2017-06-03T00:56:42.329Z,16.40
2017-06-03T00:59:09.939Z,16.50
2017-06-03T01:01:38.287Z,16.70
2017-06-03T01:04:05.878Z,16.70
2017-06-03T01:06:33.486Z,16.80
2017-06-03T01:09:01.035Z,16.90
2017-06-03T01:11:29.360Z,16.90
2017-06-03T01:13:56.955Z,16.90
2017-06-03T01:16:29.481Z,16.90
2017-06-03T01:18:57.108Z,16.80
2017-06-03T01:21:25.467Z,16.80
2017-06-03T01:23:53.080Z,16.80
2017-06-03T01:26:20.685Z,16.80
2017-06-03T01:28:48.233Z,16.80
2017-06-03T01:31:16.567Z,16.80
2017-06-03T01:33:44.199Z,16.80
2017-06-03T01:36:12.760Z,16.70
2017-06-03T01:38:40.308Z,16.60
2017-06-03T01:41:08.626Z,16.50
2017-06-03T01:43:36.254Z,16.50
2017-06-03T01:46:03.794Z,16.50
2017-06-03T01:48:32.141Z,16.30
2017-06-03T01:51:00.468Z,16.20
2017-06-03T01:53:28.130Z,16.20
2017-06-03T01:55:56.450Z,16.00
2017-06-03T01:58:24.006Z,16.00
2017-06-03T02:00:52.339Z,16.10
2017-06-03T02:03:19.915Z,16.10
2017-06-03T02:05:57.101Z,16.00
2017-06-03T02:08:24.653Z,15.90
2017-06-03T02:10:53.001Z,16.00
2017-06-03T02:13:20.535Z,16.00
2017-06-03T02:15:48.147Z,16.00
2017-06-03T02:18:15.731Z,16.00
2017-06-03T02:20:44.099Z,16.00
2017-06-03T02:23:12.408Z,16.00
2017-06-03T02:25:40.742Z,16.00
2017-06-03T02:28:08.307Z,15.90
2017-06-03T02:30:36.614Z,16.00
2017-06-03T02:33:04.934Z,16.00
2017-06-03T02:35:32.531Z,16.00
2017-06-03T02:38:00.875Z,15.90
2017-06-03T02:40:29.194Z,15.80
2017-06-03T02:42:56.816Z,15.80
2017-06-03T02:45:26.297Z,15.80
2017-06-03T02:47:53.894Z,15.70
2017-06-03T02:50:22.244Z,15.80
2017-06-03T02:52:49.804Z,15.70
2017-06-03T02:55:18.178Z,15.70
2017-06-03T02:57:45.737Z,15.70
2017-06-03T03:00:14.108Z,15.60
2017-06-03T03:02:41.702Z,15.60
2017-06-03T03:05:09.269Z,15.60
2017-06-03T03:07:37.451Z,15.50
2017-06-03T03:10:05.028Z,15.40
2017-06-03T03:12:33.402Z,15.20
2017-06-03T03:15:00.982Z,15.20
2017-06-03T03:17:28.564Z,15.30
2017-06-03T03:19:56.190Z,15.30
2017-06-03T03:22:24.574Z,15.20
2017-06-03T03:24:52.131Z,15.10
2017-06-03T03:27:20.539Z,15.10
2017-06-03T03:29:48.183Z,15.10
2017-06-03T03:32:16.560Z,15.00
2017-06-03T03:34:44.137Z,14.90
2017-06-03T03:37:11.737Z,15.00
2017-06-03T03:39:40.162Z,15.00
2017-06-03T03:42:08.572Z,15.10
2017-06-03T03:44:36.131Z,15.00
2017-06-03T03:47:03.718Z,15.00
2017-06-03T03:49:31.397Z,15.00
2017-06-03T03:51:59.733Z,15.00
2017-06-03T03:54:27.367Z,15.00
2017-06-03T03:56:55.698Z,15.10
2017-06-03T03:59:23.238Z,15.10
2017-06-03T04:01:52.886Z,15.20
2017-06-03T04:04:20.599Z,15.10
2017-06-03T04:06:48.365Z,15.10
2017-06-03T04:09:16.243Z,15.20
2017-06-03T04:11:44.797Z,15.40
2017-06-03T04:14:12.766Z,15.40
2017-06-03T04:16:40.502Z,15.40
2017-06-03T04:19:10.106Z,15.50
2017-06-03T04:21:38.730Z,15.50
2017-06-03T04:26:46.810Z,15.60
2017-06-03T04:29:14.732Z,15.70
2017-06-03T04:31:43.211Z,15.90
2017-06-03T04:34:10.881Z,15.90
2017-06-03T04:36:38.496Z,15.90
2017-06-03T04:39:06.038Z,15.90
2017-06-03T04:41:34.391Z,16.00
2017-06-03T04:44:02.520Z,16.00
2017-06-03T04:46:30.096Z,16.20
2017-06-03T04:48:57.726Z,16.30
2017-06-03T04:51:26.090Z,16.50
2017-06-03T04:53:53.662Z,16.40
2017-06-03T04:56:21.309Z,16.50
2017-06-03T04:58:48.922Z,16.60
2017-06-03T05:01:17.265Z,16.70
2017-06-03T05:03:44.853Z,16.70
2017-06-03T05:20:41.788Z,17.00
2017-06-03T05:23:09.328Z,16.90
2017-06-03T05:25:37.659Z,17.00
2017-06-03T05:34:09.040Z,17.30
2017-06-03T05:36:36.724Z,17.50
2017-06-03T05:39:04.281Z,17.60
2017-06-03T05:41:32.557Z,17.90
2017-06-03T05:44:00.930Z,18.10
2017-06-03T05:46:28.451Z,18.10
2017-06-03T05:48:56.077Z,18.10
2017-06-03T05:51:24.378Z,18.20
2017-06-03T05:53:51.958Z,18.20
2017-06-03T05:56:19.545Z,18.40
2017-06-03T05:58:47.133Z,18.40
2017-06-03T06:01:15.422Z,18.10
2017-06-03T06:03:42.997Z,18.10
2017-06-03T06:06:10.584Z,18.10
2017-06-03T06:08:38.173Z,18.30
2017-06-03T06:11:07.243Z,18.70
2017-06-03T06:13:34.865Z,18.70
2017-06-03T06:16:02.412Z,18.90
2017-06-03T06:18:30.018Z,19.00
2017-06-03T06:20:58.396Z,19.30
2017-06-03T06:23:26.031Z,19.30
2017-06-03T06:25:53.562Z,19.60
2017-06-03T06:28:21.895Z,20.00
2017-06-03T06:30:50.185Z,20.10
2017-06-03T06:33:18.586Z,20.10
2017-06-03T06:35:46.938Z,20.20
2017-06-03T06:38:14.506Z,20.20
2017-06-03T06:40:42.805Z,20.40
2017-06-03T06:43:10.366Z,20.40
2017-06-03T06:45:37.971Z,20.50
2017-06-03T06:48:05.614Z,20.70
2017-06-03T06:50:33.939Z,21.30
2017-06-03T06:53:21.120Z,21.30
2017-06-03T06:55:49.742Z,21.70
2017-06-03T06:58:17.270Z,22.40
2017-06-03T07:00:45.626Z,23.40
2017-06-03T07:03:13.161Z,23.30
2017-06-03T07:05:40.785Z,23.60
2017-06-03T07:08:08.332Z,24.00
2017-06-03T07:10:37.376Z,24.60
2017-06-03T07:13:04.962Z,24.50
2017-06-03T07:15:32.509Z,24.90
2017-06-03T07:18:00.107Z,25.10
2017-06-03T07:20:28.449Z,26.10
2017-06-03T07:22:55.990Z,26.00
2017-06-03T07:25:27.921Z,26.20
2017-06-03T07:27:55.472Z,26.20
2017-06-03T07:30:23.799Z,27.20
2017-06-03T07:33:01.053Z,27.20
2017-06-03T07:35:29.460Z,27.70
2017-06-03T07:37:58.349Z,27.70
2017-06-03T07:40:28.143Z,27.80
2017-06-03T07:42:55.766Z,27.70
2017-06-03T07:45:23.465Z,27.30
2017-06-03T07:47:51.154Z,27.70
2017-06-03T07:50:19.553Z,27.70
2017-06-03T07:52:47.213Z,27.70
2017-06-03T07:55:20.335Z,27.80
2017-06-03T07:57:47.924Z,27.80
2017-06-03T08:00:16.312Z,29.20
2017-06-03T08:02:43.899Z,29.10
2017-06-03T08:05:12.721Z,29.00
2017-06-03T08:07:41.529Z,29.50
2017-06-03T08:10:10.115Z,28.60
2017-06-03T08:12:37.781Z,28.60
2017-06-03T08:15:19.186Z,29.50
2017-06-03T08:17:46.772Z,29.80
2017-06-03T08:20:15.192Z,30.30
2017-06-03T08:22:42.835Z,30.30
2017-06-03T08:25:10.392Z,30.90
2017-06-03T08:27:37.954Z,30.10
2017-06-03T08:30:05.731Z,30.70
2017-06-03T08:32:34.450Z,31.10
2017-06-03T08:35:02.064Z,31.10
2017-06-03T08:37:29.699Z,31.60
2017-06-03T08:39:57.199Z,31.20
2017-06-03T08:42:25.507Z,31.80
2017-06-03T08:44:53.208Z,31.80
2017-06-03T08:47:20.737Z,32.60
2017-06-03T08:49:48.269Z,33.00
2017-06-03T10:42:00.249Z,30.30
2017-06-03T10:44:27.801Z,30.20
2017-06-03T10:46:56.137Z,30.40
2017-06-03T10:49:23.696Z,30.40
2017-06-03T14:34:00.641Z,26.50
2017-06-03T14:36:28.147Z,26.50
2017-06-03T14:38:56.651Z,26.20
2017-06-03T14:41:24.165Z,26.20
2017-06-03T14:43:52.451Z,26.10
2017-06-03T14:46:21.468Z,26.20
2017-06-03T14:48:48.979Z,26.20
2017-06-03T14:51:16.556Z,26.00
2017-06-03T14:53:44.873Z,25.80
2017-06-03T14:56:12.391Z,25.80
2017-06-03T14:58:39.906Z,25.70
2017-06-03T15:01:07.418Z,25.70
2017-06-03T15:03:35.767Z,25.60
2017-06-03T15:06:04.044Z,25.50
2017-06-03T15:08:31.558Z,25.50
2017-06-03T15:10:59.092Z,25.50
2017-06-03T15:13:27.533Z,25.50
2017-06-03T15:15:55.304Z,25.40
2017-06-03T15:18:22.839Z,25.40
2017-06-03T15:20:50.359Z,25.50
2017-06-03T15:23:18.645Z,25.50
2017-06-03T15:25:46.930Z,25.50
2017-06-03T15:28:14.465Z,25.50
2017-06-03T15:30:41.976Z,25.30
2017-06-03T15:33:10.292Z,25.40
2017-06-03T15:35:37.815Z,25.40
2017-06-03T15:38:06.219Z,25.50
2017-06-03T15:40:33.770Z,25.50
2017-06-03T15:43:02.084Z,25.60
2017-06-03T15:45:29.588Z,25.50
2017-06-03T15:47:57.107Z,25.40
2017-06-03T15:50:24.613Z,25.30
2017-06-03T15:52:52.934Z,25.40
2017-06-03T15:55:20.453Z,25.40
2017-06-03T15:57:47.959Z,25.30
2017-06-03T16:00:15.534Z,25.30
2017-06-03T16:02:43.834Z,25.50
2017-06-03T16:05:11.408Z,25.50
2017-06-03T16:07:38.925Z,25.50
2017-06-03T16:10:06.478Z,25.50
2017-06-03T16:12:34.747Z,25.70
2017-06-03T16:15:02.320Z,25.70
2017-06-03T16:17:29.847Z,25.50
2017-06-03T16:19:57.391Z,25.40
2017-06-03T16:22:25.695Z,25.50
2017-06-03T16:24:53.220Z,25.50
2017-06-03T16:27:20.773Z,25.60
2017-06-03T16:29:48.375Z,25.60
2017-06-03T16:32:16.689Z,25.80
2017-06-03T16:34:44.204Z,25.70
2017-06-03T16:37:11.960Z,25.80
2017-06-03T16:39:39.513Z,25.80
2017-06-03T16:42:10.984Z,25.50
2017-06-03T16:44:38.508Z,25.40
2017-06-03T16:47:06.822Z,25.40
2017-06-03T16:49:34.441Z,25.40
2017-06-03T16:52:03.293Z,25.10
2017-06-03T16:54:30.846Z,25.10
2017-06-03T16:56:58.407Z,25.00
2017-06-03T16:59:25.928Z,24.70
2017-06-03T17:01:54.237Z,24.30
2017-06-03T17:04:21.831Z,24.30
2017-06-03T17:06:49.398Z,24.30
2017-06-03T17:09:16.923Z,24.10
2017-06-03T17:11:45.241Z,24.00
2017-06-03T17:14:13.542Z,23.80
2017-06-03T17:16:41.080Z,23.80
2017-06-03T17:19:08.643Z,23.70
2017-06-03T17:21:36.236Z,23.60
2017-06-03T17:24:04.539Z,23.50
2017-06-03T17:26:32.096Z,23.40
2017-06-03T17:29:04.894Z,23.30
2017-06-03T17:31:33.203Z,23.20
2017-06-03T17:34:01.480Z,23.20
2017-06-03T17:36:29.016Z,23.10
2017-06-03T17:38:56.594Z,23.00
2017-06-03T17:41:24.121Z,23.00
2017-06-03T17:43:52.523Z,22.90
2017-06-03T17:46:20.048Z,22.90
2017-06-03T17:48:47.600Z,22.80
2017-06-03T17:51:15.165Z,22.70
2017-06-03T17:53:43.459Z,22.70
2017-06-03T17:56:11.147Z,22.70
2017-06-03T17:58:38.720Z,22.70
2017-06-03T18:01:06.296Z,22.50
2017-06-03T18:03:34.598Z,22.50
2017-06-03T18:11:50.044Z,22.30
2017-06-03T18:14:18.634Z,22.40
2017-06-03T18:16:46.144Z,22.30
2017-06-03T18:19:13.670Z,22.20
2017-06-03T18:21:41.209Z,22.10
2017-06-03T18:24:09.519Z,21.80
2017-06-03T18:26:37.077Z,21.80
2017-06-03T18:29:04.601Z,21.70
2017-06-03T18:31:32.917Z,21.60
2017-06-03T18:34:01.226Z,21.50
2017-06-03T18:36:28.778Z,21.40
2017-06-03T18:38:56.298Z,21.30
2017-06-03T18:41:23.799Z,21.20
2017-06-03T18:43:52.926Z,21.10
2017-06-03T18:46:20.478Z,21.10
2017-06-03T18:48:48.037Z,21.10
2017-06-03T18:51:15.596Z,21.00
2017-06-03T18:53:43.930Z,20.90
2017-06-03T18:56:11.504Z,20.90
2017-06-03T18:58:39.066Z,20.90
2017-06-03T19:01:06.630Z,20.80
2017-06-03T19:03:34.957Z,20.70
2017-06-03T19:06:03.407Z,20.60
2017-06-03T19:08:30.985Z,20.60
2017-06-03T19:10:58.548Z,20.40
2017-06-03T19:13:26.900Z,20.40
2017-06-03T19:15:54.475Z,20.40
2017-06-03T19:18:22.041Z,20.20
2017-06-03T19:20:49.627Z,20.00
2017-06-03T19:23:17.900Z,19.70
2017-06-03T19:25:45.443Z,19.60
2017-06-03T19:28:12.985Z,19.60
2017-06-03T19:30:40.503Z,19.60
2017-06-03T19:33:08.795Z,19.50
2017-06-03T19:35:36.324Z,19.50
2017-06-03T19:38:03.864Z,19.50
2017-06-03T19:46:18.205Z,19.50
2017-06-03T19:48:45.741Z,19.50
2017-06-03T19:51:13.285Z,19.40
2017-06-03T19:53:41.585Z,19.30
2017-06-03T19:56:09.909Z,19.30
2017-06-03T19:58:39.809Z,19.20
2017-06-03T20:01:07.536Z,19.20
2017-06-03T20:03:35.954Z,19.30
2017-06-03T20:06:04.521Z,19.30
2017-06-03T20:08:32.327Z,19.20
2017-06-03T20:10:59.984Z,19.20
2017-06-03T20:13:28.311Z,19.30
2017-06-03T20:15:55.854Z,19.20
2017-06-03T20:18:23.388Z,19.20
2017-06-03T20:20:50.938Z,19.20
2017-06-03T20:23:19.396Z,19.10
2017-06-03T20:25:46.973Z,19.10
2017-06-03T20:28:14.499Z,19.00
2017-06-03T20:30:42.151Z,19.00
2017-06-03T20:33:10.438Z,19.00
2017-06-03T20:35:39.078Z,19.00
2017-06-03T20:38:06.614Z,19.00
2017-06-03T20:40:34.859Z,19.00
2017-06-03T20:43:03.206Z,19.00
2017-06-03T20:45:30.979Z,19.00
2017-06-03T20:47:58.531Z,19.10
2017-06-03T20:50:26.084Z,19.10
2017-06-03T20:52:54.400Z,18.90
2017-06-03T20:55:22.991Z,18.90
2017-06-03T20:57:50.597Z,18.90
2017-06-03T21:00:18.249Z,18.90
2017-06-03T21:02:46.579Z,18.70
2017-06-03T21:05:14.182Z,18.70
2017-06-03T21:07:41.783Z,18.70
2017-06-03T21:10:09.336Z,18.70
2017-06-03T21:12:37.658Z,18.60
2017-06-03T21:15:05.194Z,18.60
2017-06-03T21:17:32.767Z,18.70
2017-06-03T21:20:00.359Z,18.70
2017-06-03T21:22:28.662Z,18.50
2017-06-03T21:24:56.199Z,18.50
2017-06-03T21:27:23.727Z,18.60
2017-06-03T21:29:51.242Z,18.50
2017-06-03T21:32:19.653Z,18.40
2017-06-03T21:34:47.206Z,18.30
2017-06-03T21:37:15.270Z,18.20
2017-06-03T21:39:42.869Z,18.10
2017-06-03T21:42:14.652Z,18.10
2017-06-03T21:44:42.190Z,18.10
2017-06-03T21:47:09.707Z,18.00
2017-06-03T21:49:37.280Z,18.00
2017-06-03T21:52:05.585Z,18.10
2017-06-03T21:54:33.245Z,18.00
2017-06-03T21:57:00.835Z,18.00
2017-06-03T21:59:28.451Z,18.10
2017-06-03T22:01:56.740Z,18.00
2017-06-03T22:04:24.278Z,18.00
2017-06-03T22:06:51.872Z,18.00
2017-06-03T22:09:19.401Z,17.90
2017-06-03T22:11:47.575Z,17.90
2017-06-03T22:14:15.953Z,17.80
2017-06-03T22:16:43.532Z,17.80
2017-06-03T22:19:11.100Z,17.80
2017-06-03T22:21:38.995Z,17.70
2017-06-03T22:24:07.270Z,17.70
2017-06-03T22:26:34.802Z,17.70
2017-06-03T22:29:02.366Z,17.60
2017-06-03T22:31:29.970Z,17.50
2017-06-03T22:33:59.270Z,17.50
2017-06-03T22:36:26.822Z,17.50
2017-06-03T22:38:54.385Z,17.40
2017-06-03T22:41:21.914Z,17.40
2017-06-03T22:43:50.458Z,17.20
2017-06-03T22:46:18.030Z,17.20
2017-06-03T22:48:46.355Z,17.30
2017-06-03T22:51:13.878Z,17.20
2017-06-03T22:53:42.185Z,17.30
2017-06-03T22:56:10.541Z,17.40
2017-06-03T22:58:38.850Z,17.30
2017-06-03T23:01:06.402Z,17.30
2017-06-03T23:03:34.689Z,17.30
2017-06-03T23:06:02.241Z,17.30
2017-06-03T23:08:29.796Z,17.10
2017-06-03T23:10:57.323Z,17.10
2017-06-03T23:13:25.622Z,17.10
2017-06-03T23:15:53.175Z,17.10
2017-06-03T23:18:20.711Z,17.00
2017-06-03T23:20:48.226Z,17.10
2017-06-03T23:23:16.537Z,17.10
2017-06-03T23:25:44.054Z,17.00
2017-06-03T23:28:12.428Z,17.10
2017-06-03T23:30:39.984Z,17.00
2017-06-03T23:33:08.443Z,17.00
2017-06-03T23:35:35.949Z,17.10
2017-06-03T23:38:04.264Z,17.10
2017-06-03T23:40:31.806Z,17.10
2017-06-03T23:43:00.075Z,16.90
2017-06-03T23:45:27.636Z,16.90
2017-06-03T23:47:55.157Z,17.00
2017-06-03T23:50:23.471Z,17.00
2017-06-03T23:52:51.769Z,17.10
2017-06-03T23:55:19.312Z,17.10
2017-06-03T23:57:46.857Z,17.00
